CET,Max TemperatureF,Mean TemperatureF,Min TemperatureF,Max Dew PointF,MeanDew PointF,Min DewpointF,Max Humidity, Mean Humidity, Min Humidity, Max Sea Level PressureIn, Mean Sea Level PressureIn, Min Sea Level PressureIn, Max VisibilityMiles, Mean VisibilityMiles, Min VisibilityMiles, Max Wind SpeedMPH, Mean Wind SpeedMPH, Max Gust SpeedMPH,PrecipitationIn, CloudCover, Events, WindDirDegrees
2014-1-1,50,46,42,46,42,39,93,81,62,29.77,29.59,29.36,19,7,4,18,11,33,0.00,7,Rain,183
2014-1-2,51,48,46,46,44,41,93,80,69,29.64,29.44,29.30,19,7,6,20,13,31,0.00,7,Rain,207
2014-1-3,55,48,42,47,44,37,100,83,58,29.68,29.54,29.47,19,7,1,44,13,58,0.00,7,Rain,201
2014-1-4,50,46,42,45,43,38,93,81,63,29.71,29.49,29.33,19,7,6,14,10,,0.00,7,Rain,179
2014-1-5,46,42,39,45,39,37,93,83,66,29.78,29.64,29.39,19,8,6,15,10,26,0.00,7,,202
2014-1-6,58,50,43,50,48,40,94,82,68,29.65,29.56,29.53,19,7,4,20,14,38,0.00,7,Rain,202
2014-1-7,55,52,49,46,44,43,87,73,58,29.88,29.78,29.65,19,8,6,17,14,33,0.00,7,,207
2014-1-8,51,48,44,48,45,43,94,88,75,30.07,29.96,29.83,19,7,4,16,11,25,0.00,7,Rain,214
2014-1-9,53,48,42,50,46,37,94,84,59,29.90,29.71,29.62,19,7,4,26,13,50,0.00,7,Rain,224
2014-1-10,48,44,39,43,39,36,93,86,68,30.04,29.99,29.89,18,7,4,14,10,21,0.00,7,,222
2014-1-11,47,40,32,45,38,32,100,89,67,30.24,30.03,29.95,19,6,2,16,10,,0.00,7,Rain,239
2014-1-12,44,34,24,37,30,23,100,89,53,30.28,30.19,29.89,19,4,0,9,3,,0.00,8,Fog-Snow,169
2014-1-13,49,42,36,43,41,34,100,84,66,29.90,29.80,29.71,14,7,6,16,10,25,0.00,7,Rain,200
2014-1-14,43,40,38,43,40,36,100,93,79,29.79,29.65,29.59,16,6,2,10,5,,0.00,7,Rain,192
2014-1-15,46,39,33,45,39,33,100,92,75,29.81,29.66,29.53,19,6,3,12,8,26,0.00,8,Rain,187
2014-1-16,49,46,43,46,44,41,100,88,76,29.55,29.43,29.39,16,6,4,12,9,24,0.00,7,Rain,188
2014-1-17,48,46,43,45,42,39,100,83,64,29.51,29.43,29.39,14,6,5,14,11,25,0.00,7,Rain,194
2014-1-18,48,44,39,43,39,36,93,79,65,29.53,29.46,29.42,17,7,6,9,6,,0.00,8,Rain,132
2014-1-19,49,44,39,45,40,36,100,85,67,29.59,29.46,29.36,19,8,4,9,6,,0.00,8,Rain,133
2014-1-20,44,41,38,43,41,37,100,98,92,29.84,29.69,29.59,6,2,0,7,2,,0.00,7,Fog-Rain,347
2014-1-21,45,41,37,43,39,34,100,94,81,29.92,29.88,29.83,7,4,2,12,4,,0.00,8,Rain,221
2014-1-22,41,38,35,36,32,30,87,76,58,29.92,29.87,29.83,19,8,6,11,6,,0.00,8,,159
2014-1-23,45,42,38,43,39,34,100,89,74,29.93,29.85,29.77,14,5,2,14,7,,0.00,8,Rain,214
2014-1-24,45,38,32,37,34,28,93,81,54,30.07,29.97,29.86,18,8,6,10,6,,0.00,8,,244
2014-1-25,44,38,32,41,35,30,93,82,66,30.07,29.89,29.68,17,7,3,32,9,52,0.00,7,Rain-Thunderstorm,208
2014-1-26,46,42,39,45,38,34,100,83,64,29.92,29.58,29.21,17,7,2,23,13,38,0.00,7,Rain,217
2014-1-27,41,38,36,39,35,32,93,84,72,29.34,29.31,29.24,19,7,3,21,13,36,0.00,7,Rain,211
2014-1-28,42,40,37,38,35,33,88,82,65,29.41,29.34,29.33,19,8,6,14,10,26,0.00,7,Rain,164
2014-1-29,39,36,33,34,31,28,87,79,60,29.58,29.47,29.39,19,7,4,20,11,,0.00,8,,86
2014-1-30,44,38,32,38,33,28,93,81,67,29.73,29.65,29.56,7,6,3,11,7,,0.00,8,Rain,92
2014-1-31,45,34,24,39,32,25,100,88,56,29.77,29.69,29.42,19,4,0,15,4,28,0.00,7,Fog-Rain,146